Time;durP1;ratioP1;P1;durP2;ratioP2;P2;SDS_P1;SDS_P2;PMS_P1;PMS_P2;Temp;Humidity;BMP_temperature;BMP_pressure;BME280_temperature;BME280_humidity;BME280_pressure;Samples;Min_cycle;Max_cycle;Signal;HPM_P1;HPM_P2
2022/08/15 00:00:54;;;;;;;3.22;2.20;;;;;;;;;;5113636;28;20055;-84
2022/08/15 00:03:20;;;;;;;6.07;2.22;;;;;;;;;;5121830;28;20019;-84
2022/08/15 00:05:46;;;;;;;5.38;2.45;;;;;;;;;;5113623;28;20030;-84
2022/08/15 00:08:12;;;;;;;4.70;2.50;;;;;;;;;;5113857;28;20024;-84
2022/08/15 00:10:37;;;;;;;7.82;2.28;;;;;;;;;;5123362;27;20020;-84
2022/08/15 00:13:18;;;;;;;4.47;2.30;;;;;;;;;;5080930;28;20047;-84
2022/08/15 00:15:46;;;;;;;3.03;2.35;;;;;;;;;;5086659;28;20106;-84
2022/08/15 00:18:13;;;;;;;3.95;2.35;;;;;;;;;;5103276;28;20059;-84
2022/08/15 00:20:39;;;;;;;4.75;2.00;;;;;;;;;;5100721;28;20042;-84
2022/08/15 00:23:09;;;;;;;2.83;2.30;;;;;;;;;;5100053;28;20098;-84
2022/08/15 00:25:37;;;;;;;2.63;2.20;;;;;;;;;;5100249;28;20027;-84
2022/08/15 00:28:07;;;;;;;2.60;2.25;;;;;;;;;;5101081;28;20031;-84
2022/08/15 00:30:38;;;;;;;3.35;2.28;;;;;;;;;;5105110;28;20166;-83
2022/08/15 00:33:05;;;;;;;9.60;2.10;;;;;;;;;;5080203;28;20343;-85
2022/08/15 00:35:37;;;;;;;6.40;2.35;;;;;;;;;;5079227;28;20290;-84
2022/08/15 00:38:08;;;;;;;;;;;;;;;;;;5077019;28;20024;-83
2022/08/15 00:41:39;;;;;;;2.92;2.30;;;;;;;;;;5077865;28;20281;-84
2022/08/15 00:43:21;;;;;;;2.60;2.33;;;;;;;;;;5109481;28;20028;-84
2022/08/15 00:45:47;;;;;;;9.23;2.55;;;;;;;;;;5092959;28;20062;-84
2022/08/15 00:50:58;;;;;;;2.28;2.08;;;;;;;;;;5096658;28;20081;-84
2022/08/15 00:53:23;;;;;;;4.25;2.10;;;;;;;;;;5111683;28;20072;-83
2022/08/15 00:55:49;;;;;;;4.50;2.30;;;;;;;;;;5120871;28;20106;-84
2022/08/15 00:58:14;;;;;;;4.03;2.08;;;;;;;;;;5100445;28;20028;-83
2022/08/15 01:00:44;;;;;;;3.15;2.35;;;;;;;;;;5098550;28;20047;-84
2022/08/15 01:03:25;;;;;;;2.95;2.00;;;;;;;;;;5119861;28;20020;-84
2022/08/15 01:05:57;;;;;;;4.40;2.25;;;;;;;;;;5104443;28;20047;-83
2022/08/15 01:08:26;;;;;;;2.10;1.88;;;;;;;;;;5102772;28;20424;-84
2022/08/15 01:10:54;;;;;;;4.13;2.10;;;;;;;;;;5100725;28;20435;-83
2022/08/15 01:13:20;;;;;;;5.22;2.08;;;;;;;;;;5103057;28;20092;-82
2022/08/15 01:15:45;;;;;;;2.72;2.38;;;;;;;;;;5107847;28;20075;-84
2022/08/15 01:18:12;;;;;;;4.15;2.55;;;;;;;;;;5113424;28;20023;-83
2022/08/15 01:20:42;;;;;;;3.85;1.95;;;;;;;;;;5120065;28;20094;-85
2022/08/15 01:23:15;;;;;;;3.35;2.40;;;;;;;;;;5119075;28;20446;-84
2022/08/15 01:25:48;;;;;;;3.08;2.30;;;;;;;;;;5098800;28;20158;-84
2022/08/15 01:28:25;;;;;;;3.53;2.10;;;;;;;;;;5099632;28;20042;-84
2022/08/15 01:30:56;;;;;;;2.80;2.20;;;;;;;;;;5107324;28;20023;-84
2022/08/15 01:33:24;;;;;;;3.70;2.20;;;;;;;;;;5119429;28;20023;-84
2022/08/15 01:35:52;;;;;;;4.90;2.42;;;;;;;;;;5117870;28;20057;-84
2022/08/15 01:38:31;;;;;;;3.25;2.33;;;;;;;;;;5117821;28;20039;-83
2022/08/15 01:41:36;;;;;;;2.60;2.20;;;;;;;;;;5106726;28;20049;-84
2022/08/15 01:44:17;;;;;;;3.60;2.53;;;;;;;;;;5098756;28;20032;-84
2022/08/15 01:46:52;;;;;;;2.93;2.30;;;;;;;;;;5098248;28;20041;-84
2022/08/15 01:49:35;;;;;;;7.10;2.30;;;;;;;;;;5104321;28;20073;-84
2022/08/15 01:52:03;;;;;;;3.15;2.40;;;;;;;;;;5097527;28;20408;-84
2022/08/15 01:54:32;;;;;;;4.93;2.10;;;;;;;;;;5098427;28;20039;-84
2022/08/15 01:56:59;;;;;;;3.00;2.50;;;;;;;;;;5098291;28;20077;-85
2022/08/15 01:59:24;;;;;;;3.15;2.72;;;;;;;;;;5103181;28;20098;-85
2022/08/15 02:01:59;;;;;;;2.72;2.20;;;;;;;;;;5100138;28;20055;-85
2022/08/15 02:04:28;;;;;;;2.58;2.38;;;;;;;;;;5097658;28;20028;-84
2022/08/15 02:07:00;;;;;;;6.68;2.47;;;;;;;;;;5109599;28;20452;-85
2022/08/15 02:09:26;;;;;;;;;;;;;;;;;;5120885;28;20073;-85
2022/08/15 02:11:56;;;;;;;6.38;2.22;;;;;;;;;;5109194;28;19908;-85
2022/08/15 02:14:21;;;;;;;3.78;2.33;;;;;;;;;;5097379;28;20021;-84
2022/08/15 02:16:48;;;;;;;4.00;2.45;;;;;;;;;;5105631;28;20027;-85
2022/08/15 02:19:14;;;;;;;5.38;2.67;;;;;;;;;;5112762;28;20031;-85
2022/08/15 02:21:43;;;;;;;4.03;2.30;;;;;;;;;;5118478;28;20026;-85
2022/08/15 02:24:13;;;;;;;2.88;2.50;;;;;;;;;;5119078;28;20030;-83
2022/08/15 02:26:38;;;;;;;5.13;2.17;;;;;;;;;;5117104;28;20040;-83
2022/08/15 02:29:05;;;;;;;3.67;2.38;;;;;;;;;;5110507;28;20027;-84
2022/08/15 02:31:31;;;;;;;2.92;2.28;;;;;;;;;;5106923;28;20035;-85
2022/08/15 02:33:59;;;;;;;6.95;2.53;;;;;;;;;;5098712;28;20024;-85
2022/08/15 02:36:27;;;;;;;7.03;2.92;;;;;;;;;;5099387;28;20028;-85
2022/08/15 02:38:53;;;;;;;2.80;2.50;;;;;;;;;;5098943;28;20081;-85
2022/08/15 02:41:41;;;;;;;4.38;2.30;;;;;;;;;;5098266;28;20059;-85
2022/08/15 02:44:07;;;;;;;3.22;2.55;;;;;;;;;;5099164;28;20424;-84
2022/08/15 02:46:33;;;;;;;7.22;2.90;;;;;;;;;;5088499;28;20070;-84
2022/08/15 02:49:02;;;;;;;4.53;2.50;;;;;;;;;;5110399;28;20023;-84
2022/08/15 02:51:28;;;;;;;3.95;2.50;;;;;;;;;;5119165;28;20015;-85
2022/08/15 02:53:55;;;;;;;3.15;2.20;;;;;;;;;;5104001;28;20028;-84
2022/08/15 02:56:25;;;;;;;3.85;2.63;;;;;;;;;;5097178;28;20035;-84
2022/08/15 02:58:51;;;;;;;4.60;2.97;;;;;;;;;;5094745;28;20501;-85
2022/08/15 03:01:18;;;;;;;5.47;2.85;;;;;;;;;;5099554;28;20081;-85
2022/08/15 03:03:47;;;;;;;5.55;2.42;;;;;;;;;;5117150;28;20027;-84
2022/08/15 03:06:15;;;;;;;4.63;2.60;;;;;;;;;;5112385;28;20066;-84
2022/08/15 03:08:41;;;;;;;4.78;2.53;;;;;;;;;;5093603;28;20126;-84
2022/08/15 03:11:08;;;;;;;6.05;2.65;;;;;;;;;;5117320;28;20342;-83
2022/08/15 03:13:35;;;;;;;3.88;2.85;;;;;;;;;;5101535;28;20044;-82
2022/08/15 03:16:04;;;;;;;4.97;2.67;;;;;;;;;;5093723;28;20035;-83
2022/08/15 03:18:33;;;;;;;4.38;2.50;;;;;;;;;;5109180;28;20024;-84
2022/08/15 03:21:01;;;;;;;5.63;2.40;;;;;;;;;;5099582;28;20031;-84
2022/08/15 03:23:32;;;;;;;4.80;2.70;;;;;;;;;;5099887;28;20024;-84
2022/08/15 03:25:59;;;;;;;3.00;2.10;;;;;;;;;;5100516;28;20125;-83
2022/08/15 03:28:28;;;;;;;8.02;2.40;;;;;;;;;;5082817;28;20028;-83
2022/08/15 03:30:56;;;;;;;4.18;2.58;;;;;;;;;;5111313;28;20549;-83
2022/08/15 03:33:21;;;;;;;3.25;2.20;;;;;;;;;;5119783;28;20028;-84
2022/08/15 03:35:49;;;;;;;3.72;2.17;;;;;;;;;;5121719;28;20031;-83
2022/08/15 03:38:15;;;;;;;3.45;2.28;;;;;;;;;;5120805;28;20047;-83
2022/08/15 03:40:43;;;;;;;6.07;2.13;;;;;;;;;;5121511;28;20034;-84
2022/08/15 03:43:12;;;;;;;6.63;2.17;;;;;;;;;;5117899;27;20019;-84
2022/08/15 03:45:38;;;;;;;4.25;3.22;;;;;;;;;;5092166;28;20024;-83
2022/08/15 03:48:04;;;;;;;4.22;2.33;;;;;;;;;;5121944;27;20023;-84
2022/08/15 03:50:32;;;;;;;5.20;2.47;;;;;;;;;;5122007;28;20047;-84
2022/08/15 03:53:03;;;;;;;4.28;2.10;;;;;;;;;;5122066;28;20031;-84
2022/08/15 03:55:30;;;;;;;3.63;2.10;;;;;;;;;;5121282;28;20080;-83
2022/08/15 03:57:57;;;;;;;6.60;2.67;;;;;;;;;;5120800;28;20031;-83
2022/08/15 04:00:26;;;;;;;3.95;2.05;;;;;;;;;;5119873;28;20059;-85
2022/08/15 04:02:53;;;;;;;3.03;1.75;;;;;;;;;;5127559;28;20007;-83
2022/08/15 04:05:19;;;;;;;3.67;2.22;;;;;;;;;;5119281;28;20023;-83
2022/08/15 04:07:45;;;;;;;5.80;2.20;;;;;;;;;;5121157;28;20036;-83
2022/08/15 04:10:14;;;;;;;2.17;1.98;;;;;;;;;;5132695;28;20039;-83
2022/08/15 04:12:42;;;;;;;3.42;1.95;;;;;;;;;;5122217;28;20024;-84
2022/08/15 04:15:12;;;;;;;5.05;2.20;;;;;;;;;;5114750;28;20021;-82
2022/08/15 04:17:37;;;;;;;4.28;2.28;;;;;;;;;;5129348;28;20027;-83
2022/08/15 04:20:04;;;;;;;3.90;2.05;;;;;;;;;;5131627;28;20019;-83
2022/08/15 04:22:42;;;;;;;3.20;2.33;;;;;;;;;;5138048;28;20043;-84
2022/08/15 04:25:15;;;;;;;2.55;2.28;;;;;;;;;;5123420;28;20075;-84
2022/08/15 04:27:41;;;;;;;3.65;2.20;;;;;;;;;;5123411;28;20401;-84
2022/08/15 04:30:08;;;;;;;2.40;2.15;;;;;;;;;;5104715;27;20028;-84
2022/08/15 04:32:33;;;;;;;6.25;2.30;;;;;;;;;;5112418;22;20065;-83
2022/08/15 04:34:59;;;;;;;4.68;2.00;;;;;;;;;;5035673;28;20045;-85
2022/08/15 04:37:26;;;;;;;3.17;2.00;;;;;;;;;;5035909;28;20010;-85
2022/08/15 04:39:53;;;;;;;3.20;2.10;;;;;;;;;;5036196;28;20513;-81
2022/08/15 04:42:21;;;;;;;4.43;2.20;;;;;;;;;;5028828;28;20026;-80
2022/08/15 04:44:48;;;;;;;4.47;2.40;;;;;;;;;;5002143;28;20171;-84
2022/08/15 04:47:14;;;;;;;4.00;2.30;;;;;;;;;;4996096;28;20018;-81
2022/08/15 04:49:40;;;;;;;4.22;2.17;;;;;;;;;;5020257;28;20045;-81
2022/08/15 04:52:08;;;;;;;2.58;2.13;;;;;;;;;;5015829;28;20087;-81
2022/08/15 04:54:34;;;;;;;2.85;2.15;;;;;;;;;;5020487;28;20028;-80
2022/08/15 04:57:00;;;;;;;5.30;2.33;;;;;;;;;;4998674;28;20018;-81
2022/08/15 04:59:25;;;;;;;2.30;2.00;;;;;;;;;;4982583;28;20071;-82
2022/08/15 05:01:51;;;;;;;4.05;2.30;;;;;;;;;;5019121;28;20033;-81
2022/08/15 05:04:16;;;;;;;5.63;1.88;;;;;;;;;;5002151;28;20422;-80
2022/08/15 05:06:42;;;;;;;9.55;2.22;;;;;;;;;;5019024;28;20037;-81
2022/08/15 05:09:07;;;;;;;6.88;2.53;;;;;;;;;;5016247;28;20475;-81
2022/08/15 05:11:32;;;;;;;2.42;1.73;;;;;;;;;;5011049;28;20022;-82
2022/08/15 05:13:58;;;;;;;4.90;2.30;;;;;;;;;;4981960;28;20068;-81
2022/08/15 05:16:23;;;;;;;2.47;1.92;;;;;;;;;;5005561;28;20026;-81
2022/08/15 05:18:49;;;;;;;2.63;1.80;;;;;;;;;;4990529;28;20042;-81
2022/08/15 05:21:14;;;;;;;1.83;1.70;;;;;;;;;;4981077;28;20026;-80
2022/08/15 05:23:41;;;;;;;6.68;2.20;;;;;;;;;;4981301;28;20028;-80
2022/08/15 05:26:07;;;;;;;3.30;1.65;;;;;;;;;;4981904;28;20021;-81
2022/08/15 05:28:32;;;;;;;3.47;1.75;;;;;;;;;;5017125;28;20472;-80
2022/08/15 05:31:01;;;;;;;4.03;1.60;;;;;;;;;;5018413;28;20064;-81
2022/08/15 05:33:29;;;;;;;3.83;1.70;;;;;;;;;;5018716;28;20112;-80
2022/08/15 05:35:58;;;;;;;3.55;1.77;;;;;;;;;;5001526;28;20026;-80
2022/08/15 05:39:00;;;;;;;1.92;1.40;;;;;;;;;;5018379;28;20052;-80
2022/08/15 05:41:50;;;;;;;2.25;1.90;;;;;;;;;;4992439;28;20065;-81
2022/08/15 05:44:44;;;;;;;1.83;1.50;;;;;;;;;;5001243;28;20029;-81
2022/08/15 05:47:30;;;;;;;1.95;1.73;;;;;;;;;;4986465;28;20361;-81
2022/08/15 05:50:06;;;;;;;1.52;1.38;;;;;;;;;;5003569;28;20108;-83
2022/08/15 05:52:37;;;;;;;2.47;1.80;;;;;;;;;;5018399;28;20029;-81
2022/08/15 05:55:12;;;;;;;7.90;2.15;;;;;;;;;;5012438;28;20030;-82
2022/08/15 05:58:14;;;;;;;3.15;1.77;;;;;;;;;;4989355;28;20023;-80
2022/08/15 06:00:43;;;;;;;;;;;;;;;;;;5000299;28;20440;-81
2022/08/15 06:03:17;;;;;;;1.70;1.60;;;;;;;;;;4999876;28;20004;-80
2022/08/15 06:05:50;;;;;;;1.70;1.58;;;;;;;;;;5018078;28;20048;-82
2022/08/15 06:08:26;;;;;;;3.13;1.55;;;;;;;;;;4992654;28;20542;-82
2022/08/15 06:10:54;;;;;;;1.40;1.30;;;;;;;;;;4990829;28;20026;-82
2022/08/15 06:13:23;;;;;;;4.13;1.73;;;;;;;;;;5014913;28;20036;-80
2022/08/15 06:16:03;;;;;;;6.10;1.77;;;;;;;;;;4996411;28;20030;-80
2022/08/15 06:18:33;;;;;;;3.20;1.80;;;;;;;;;;5002842;28;20108;-82
2022/08/15 06:21:37;;;;;;;1.70;1.60;;;;;;;;;;5020962;28;20041;-82
2022/08/15 06:24:20;;;;;;;3.35;1.65;;;;;;;;;;4939987;29;20129;-83
2022/08/15 06:26:56;;;;;;;1.83;1.55;;;;;;;;;;4996339;28;20040;-80
2022/08/15 06:29:57;;;;;;;2.83;1.60;;;;;;;;;;5016423;28;20044;-80
2022/08/15 06:32:41;;;;;;;2.35;1.73;;;;;;;;;;5006871;28;20026;-80
2022/08/15 06:35:10;;;;;;;5.00;2.20;;;;;;;;;;5008868;28;20021;-82
2022/08/15 06:38:01;;;;;;;5.05;2.05;;;;;;;;;;5021366;28;20395;-81
2022/08/15 06:40:44;;;;;;;2.30;2.10;;;;;;;;;;5005913;28;20467;-81
2022/08/15 06:43:11;;;;;;;3.30;1.70;;;;;;;;;;5005126;28;20291;-81
2022/08/15 06:45:41;;;;;;;1.77;1.55;;;;;;;;;;4997259;28;20019;-82
2022/08/15 06:48:20;;;;;;;1.83;1.50;;;;;;;;;;5022240;28;20013;-81
2022/08/15 06:50:53;;;;;;;1.80;1.70;;;;;;;;;;5004859;28;20109;-81
2022/08/15 06:53:46;;;;;;;3.25;1.70;;;;;;;;;;5005214;28;20037;-82
2022/08/15 06:56:33;;;;;;;3.15;2.15;;;;;;;;;;4990011;28;20117;-81
2022/08/15 06:59:16;;;;;;;3.35;1.83;;;;;;;;;;4998124;28;20118;-81
2022/08/15 07:01:44;;;;;;;3.13;1.73;;;;;;;;;;4983631;28;20026;-82
2022/08/15 07:04:25;;;;;;;4.65;1.70;;;;;;;;;;5004569;28;20029;-81
2022/08/15 07:07:13;;;;;;;2.55;1.65;;;;;;;;;;5003444;28;20428;-83
2022/08/15 07:10:01;;;;;;;2.00;1.55;;;;;;;;;;5021006;28;20022;-82
2022/08/15 07:12:39;;;;;;;1.95;1.40;;;;;;;;;;4994927;28;20018;-82
2022/08/15 07:15:15;;;;;;;3.25;1.90;;;;;;;;;;5002394;28;20018;-81
2022/08/15 07:17:49;;;;;;;5.15;1.70;;;;;;;;;;5010690;28;20019;-82
2022/08/15 07:20:15;;;;;;;2.25;1.75;;;;;;;;;;5006702;28;20028;-80
2022/08/15 07:22:41;;;;;;;3.03;1.85;;;;;;;;;;5005613;28;20093;-81
2022/08/15 07:25:16;;;;;;;3.45;1.83;;;;;;;;;;5002477;28;20022;-81
2022/08/15 07:27:55;;;;;;;3.38;1.70;;;;;;;;;;5005810;28;20045;-82
2022/08/15 07:30:26;;;;;;;3.35;1.65;;;;;;;;;;5005885;28;20052;-82
2022/08/15 07:32:56;;;;;;;2.70;1.65;;;;;;;;;;5001346;28;20452;-82
2022/08/15 07:35:33;;;;;;;2.25;1.60;;;;;;;;;;5001171;28;20033;-81
2022/08/15 07:38:05;;;;;;;3.53;1.55;;;;;;;;;;5003663;28;20061;-82
2022/08/15 07:40:34;;;;;;;2.03;1.65;;;;;;;;;;5004062;28;20026;-81
2022/08/15 07:43:03;;;;;;;4.72;1.83;;;;;;;;;;5004096;28;20038;-82
2022/08/15 07:45:40;;;;;;;7.05;2.30;;;;;;;;;;4996615;28;20068;-82
2022/08/15 07:48:26;;;;;;;3.17;1.77;;;;;;;;;;4983165;28;20021;-82
2022/08/15 07:51:26;;;;;;;2.47;1.60;;;;;;;;;;5003383;28;20076;-82
2022/08/15 07:53:57;;;;;;;2.63;1.42;;;;;;;;;;4969956;28;20151;-82
2022/08/15 07:56:24;;;;;;;2.20;1.40;;;;;;;;;;5004304;28;20028;-82
2022/08/15 07:59:07;;;;;;;4.80;1.27;;;;;;;;;;5011712;28;20728;-83
2022/08/15 08:01:33;;;;;;;2.17;1.45;;;;;;;;;;5020931;28;20484;-83
2022/08/15 08:04:11;;;;;;;1.65;1.40;;;;;;;;;;5003774;28;20030;-82
2022/08/15 08:06:50;;;;;;;2.15;1.70;;;;;;;;;;5021037;28;20387;-82
2022/08/15 08:09:29;;;;;;;2.13;1.55;;;;;;;;;;5002978;28;20052;-83
2022/08/15 08:12:15;;;;;;;1.55;1.38;;;;;;;;;;4991030;28;21313;-84
2022/08/15 08:15:17;;;;;;;4.53;1.55;;;;;;;;;;5020822;28;20097;-85
2022/08/15 08:17:45;;;;;;;2.70;1.42;;;;;;;;;;5035988;28;20296;-84
2022/08/15 08:20:29;;;;;;;5.47;1.55;;;;;;;;;;5010532;28;20026;-85
2022/08/15 08:23:03;;;;;;;2.47;1.25;;;;;;;;;;5022181;28;20468;-84
2022/08/15 08:25:29;;;;;;;1.83;1.40;;;;;;;;;;5019652;28;20021;-84
2022/08/15 08:28:10;;;;;;;8.50;2.08;;;;;;;;;;5004679;28;20115;-86
2022/08/15 08:30:55;;;;;;;;;;;;;;;;;;5003634;28;20032;-85
2022/08/15 08:33:56;;;;;;;1.75;1.65;;;;;;;;;;5003972;28;20012;-85
2022/08/15 08:36:46;;;;;;;4.60;1.80;;;;;;;;;;5004821;28;20048;-84
2022/08/15 08:39:14;;;;;;;3.47;1.90;;;;;;;;;;5021922;28;20072;-85
2022/08/15 08:42:07;;;;;;;8.98;2.97;;;;;;;;;;4998319;28;20121;-83
2022/08/15 08:44:51;;;;;;;3.25;2.00;;;;;;;;;;5020408;28;20072;-85
2022/08/15 08:47:22;;;;;;;5.35;1.88;;;;;;;;;;4994547;28;20084;-84
2022/08/15 08:50:09;;;;;;;3.63;1.80;;;;;;;;;;5000409;28;20026;-85
2022/08/15 08:52:52;;;;;;;2.65;1.95;;;;;;;;;;4999585;28;20094;-85
2022/08/15 08:55:27;;;;;;;2.65;1.80;;;;;;;;;;4966293;28;20026;-84
2022/08/15 08:58:15;;;;;;;2.28;1.80;;;;;;;;;;5016035;28;20026;-85
2022/08/15 09:00:44;;;;;;;5.50;2.10;;;;;;;;;;4979455;28;20115;-85
2022/08/15 09:03:12;;;;;;;2.28;1.70;;;;;;;;;;5001149;28;20053;-85
2022/08/15 09:05:49;;;;;;;3.17;1.73;;;;;;;;;;5018158;28;20029;-84
2022/08/15 09:08:29;;;;;;;2.83;1.75;;;;;;;;;;4996470;28;20068;-84
2022/08/15 09:11:01;;;;;;;2.60;2.40;;;;;;;;;;4998093;28;20033;-84
2022/08/15 09:13:35;;;;;;;3.72;2.38;;;;;;;;;;5012034;28;20025;-83
2022/08/15 09:16:19;;;;;;;2.20;1.80;;;;;;;;;;5034508;28;20037;-84
2022/08/15 09:19:10;;;;;;;3.15;1.95;;;;;;;;;;5028805;28;20041;-84
2022/08/15 09:21:36;;;;;;;2.45;1.95;;;;;;;;;;4989807;28;20180;-84
2022/08/15 09:24:03;;;;;;;2.05;1.75;;;;;;;;;;5006726;28;20065;-84
2022/08/15 09:26:38;;;;;;;3.22;2.17;;;;;;;;;;5019987;28;20048;-84
2022/08/15 09:29:12;;;;;;;3.70;1.63;;;;;;;;;;5016147;28;20062;-83
2022/08/15 09:31:40;;;;;;;3.22;1.88;;;;;;;;;;4992954;28;20030;-84
2022/08/15 09:34:26;;;;;;;1.50;1.40;;;;;;;;;;4992815;28;20029;-85
2022/08/15 09:37:26;;;;;;;2.47;1.60;;;;;;;;;;4975639;28;20086;-85
2022/08/15 09:39:52;;;;;;;2.22;1.63;;;;;;;;;;4973545;28;20062;-85
2022/08/15 09:42:39;;;;;;;4.57;1.90;;;;;;;;;;4982865;28;20081;-85
2022/08/15 09:45:38;;;;;;;3.33;1.90;;;;;;;;;;4982383;28;20077;-86
2022/08/15 09:48:28;;;;;;;1.60;1.50;;;;;;;;;;4989597;28;20028;-85
2022/08/15 09:51:13;;;;;;;3.33;2.05;;;;;;;;;;5003776;28;20026;-85
2022/08/15 09:53:56;;;;;;;3.10;1.70;;;;;;;;;;5003063;28;20029;-85
2022/08/15 09:56:25;;;;;;;2.80;1.77;;;;;;;;;;5011504;28;20037;-84
2022/08/15 09:58:52;;;;;;;4.28;1.95;;;;;;;;;;5001573;28;20044;-85
2022/08/15 10:01:28;;;;;;;3.58;2.00;;;;;;;;;;5018562;28;20043;-84
2022/08/15 10:04:09;;;;;;;5.03;1.70;;;;;;;;;;4998441;28;20083;-85
2022/08/15 10:07:01;;;;;;;4.45;1.80;;;;;;;;;;5016407;28;20022;-85
2022/08/15 10:09:30;;;;;;;4.38;1.70;;;;;;;;;;4993598;28;20486;-85
2022/08/15 10:12:07;;;;;;;2.40;1.40;;;;;;;;;;5000689;28;20018;-85
2022/08/15 10:14:39;;;;;;;2.42;1.52;;;;;;;;;;5016705;28;20030;-86
2022/08/15 10:17:23;;;;;;;1.67;1.58;;;;;;;;;;5001227;28;20500;-85
2022/08/15 10:19:49;;;;;;;1.55;1.45;;;;;;;;;;4998829;28;20029;-85
2022/08/15 10:22:22;;;;;;;4.93;1.67;;;;;;;;;;4994780;28;20026;-85
2022/08/15 10:25:16;;;;;;;2.40;1.52;;;;;;;;;;4997531;28;20026;-85
2022/08/15 10:28:11;;;;;;;1.67;1.58;;;;;;;;;;4997933;28;20026;-84
2022/08/15 10:30:46;;;;;;;2.75;1.55;;;;;;;;;;4980922;28;20038;-84
2022/08/15 10:33:44;;;;;;;2.90;1.50;;;;;;;;;;5069944;22;20045;-83
2022/08/15 10:36:13;;;;;;;2.15;1.50;;;;;;;;;;5036480;28;20121;-83
2022/08/15 10:38:44;;;;;;;2.80;1.35;;;;;;;;;;5059038;28;20029;-83
2022/08/15 10:41:40;;;;;;;1.42;1.30;;;;;;;;;;5061955;28;20483;-87
2022/08/15 10:44:42;;;;;;;1.92;1.33;;;;;;;;;;5062557;28;20094;-86
2022/08/15 10:47:23;;;;;;;1.63;1.30;;;;;;;;;;5019936;28;20029;-86
2022/08/15 10:50:05;;;;;;;1.50;1.40;;;;;;;;;;5051535;28;20025;-87
2022/08/15 10:52:56;;;;;;;5.53;2.53;;;;;;;;;;5063125;28;20029;-83
2022/08/15 10:55:29;;;;;;;1.52;1.40;;;;;;;;;;5046112;28;20033;-84
2022/08/15 10:58:23;;;;;;;1.50;1.40;;;;;;;;;;5063231;28;20036;-84
2022/08/15 11:00:55;;;;;;;1.65;1.40;;;;;;;;;;5049973;28;20044;-84
2022/08/15 11:03:38;;;;;;;3.60;1.52;;;;;;;;;;5063290;28;20021;-84
2022/08/15 11:06:07;;;;;;;1.52;1.42;;;;;;;;;;5062014;28;20036;-82
2022/08/15 11:08:36;;;;;;;3.30;1.27;;;;;;;;;;5060780;28;20024;-83
2022/08/15 11:11:05;;;;;;;1.40;1.25;;;;;;;;;;5059208;28;20097;-82
2022/08/15 11:13:31;;;;;;;1.30;1.10;;;;;;;;;;5039611;28;20029;-83
2022/08/15 11:16:08;;;;;;;1.30;1.20;;;;;;;;;;5059826;28;20101;-83
2022/08/15 11:18:37;;;;;;;1.52;1.42;;;;;;;;;;5050044;28;20030;-85
2022/08/15 11:21:29;;;;;;;1.40;1.20;;;;;;;;;;5023086;28;20030;-84
2022/08/15 11:24:02;;;;;;;1.92;1.20;;;;;;;;;;5024196;28;20108;-85
2022/08/15 11:26:33;;;;;;;1.45;1.08;;;;;;;;;;5041590;28;20036;-86
2022/08/15 11:29:21;;;;;;;2.17;1.33;;;;;;;;;;5047427;28;20036;-84
2022/08/15 11:31:51;;;;;;;3.97;1.40;;;;;;;;;;5054190;28;20075;-84
2022/08/15 11:34:34;;;;;;;2.95;1.17;;;;;;;;;;5046164;28;20122;-84
2022/08/15 11:37:30;;;;;;;1.60;1.50;;;;;;;;;;5047189;28;20102;-84
2022/08/15 11:40:01;;;;;;;1.52;1.33;;;;;;;;;;5051033;28;20096;-82
2022/08/15 11:42:36;;;;;;;2.58;1.27;;;;;;;;;;5060884;28;20463;-85
2022/08/15 11:45:22;;;;;;;1.52;1.40;;;;;;;;;;5062513;28;20040;-84
2022/08/15 11:47:53;;;;;;;2.20;1.50;;;;;;;;;;5046046;28;20018;-83
2022/08/15 11:50:35;;;;;;;2.92;1.40;;;;;;;;;;5044620;28;20033;-84
2022/08/15 11:53:06;;;;;;;4.53;1.40;;;;;;;;;;5045561;28;20022;-84
2022/08/15 11:55:32;;;;;;;1.90;1.27;;;;;;;;;;5045370;28;20030;-83
2022/08/15 11:58:19;;;;;;;3.05;1.67;;;;;;;;;;5042312;28;20049;-84
2022/08/15 12:00:48;;;;;;;1.83;1.52;;;;;;;;;;5049427;28;20049;-85
2022/08/15 12:03:23;;;;;;;4.43;1.40;;;;;;;;;;5043587;28;20021;-86
2022/08/15 12:05:52;;;;;;;1.67;1.40;;;;;;;;;;5046095;28;20064;-85
2022/08/15 12:08:25;;;;;;;1.65;1.55;;;;;;;;;;5044760;28;20026;-85
2022/08/15 12:11:01;;;;;;;1.52;1.42;;;;;;;;;;5044821;28;20047;-84
2022/08/15 12:13:27;;;;;;;2.95;1.60;;;;;;;;;;5043111;28;20025;-84
2022/08/15 12:15:52;;;;;;;2.40;1.60;;;;;;;;;;5054647;28;20021;-83
2022/08/15 12:18:18;;;;;;;4.43;1.83;;;;;;;;;;5053174;28;20022;-84
2022/08/15 12:20:59;;;;;;;4.03;1.55;;;;;;;;;;5061829;28;20029;-84
2022/08/15 12:24:06;;;;;;;4.82;1.50;;;;;;;;;;5052974;28;20490;-85
2022/08/15 12:26:31;;;;;;;2.40;1.38;;;;;;;;;;5039798;28;20025;-84
2022/08/15 12:28:57;;;;;;;2.38;1.80;;;;;;;;;;5062299;28;20013;-85
2022/08/15 12:31:34;;;;;;;2.38;1.50;;;;;;;;;;5054377;28;20016;-84
2022/08/15 12:34:14;;;;;;;2.15;1.42;;;;;;;;;;5064205;28;20025;-83
2022/08/15 12:36:42;;;;;;;2.85;1.65;;;;;;;;;;5063547;28;20035;-84
2022/08/15 12:39:09;;;;;;;4.07;1.70;;;;;;;;;;5050589;28;20033;-83
2022/08/15 12:41:34;;;;;;;2.50;1.60;;;;;;;;;;5048534;28;20025;-83
2022/08/15 12:44:01;;;;;;;2.63;1.50;;;;;;;;;;5045164;28;20023;-83
2022/08/15 12:46:27;;;;;;;3.63;1.85;;;;;;;;;;5043432;28;20085;-84
2022/08/15 12:48:52;;;;;;;2.78;1.50;;;;;;;;;;5050692;28;20025;-82
2022/08/15 12:51:18;;;;;;;3.67;1.85;;;;;;;;;;5043411;28;20021;-84
2022/08/15 12:53:43;;;;;;;4.57;1.73;;;;;;;;;;5042998;28;20480;-83
2022/08/15 12:56:09;;;;;;;3.55;1.60;;;;;;;;;;5047684;28;20028;-83
2022/08/15 12:58:36;;;;;;;4.20;1.60;;;;;;;;;;5061986;28;20088;-82
2022/08/15 13:01:05;;;;;;;3.42;1.40;;;;;;;;;;5062330;28;20035;-83
2022/08/15 13:03:33;;;;;;;4.38;1.75;;;;;;;;;;5062012;28;20036;-82
2022/08/15 13:06:07;;;;;;;6.05;1.70;;;;;;;;;;5064209;28;20055;-83
2022/08/15 13:08:33;;;;;;;1.95;1.70;;;;;;;;;;5063016;28;20029;-83
2022/08/15 13:10:59;;;;;;;3.50;1.60;;;;;;;;;;5051086;28;20022;-83
2022/08/15 13:13:25;;;;;;;1.52;1.42;;;;;;;;;;5050787;28;20030;-84
2022/08/15 13:15:50;;;;;;;1.63;1.50;;;;;;;;;;5044627;28;20029;-83
2022/08/15 13:18:20;;;;;;;4.00;1.52;;;;;;;;;;5042966;28;20040;-83
2022/08/15 13:23:42;;;;;;;2.72;1.60;;;;;;;;;;5044278;28;20044;-84
2022/08/15 13:26:16;;;;;;;3.22;1.58;;;;;;;;;;5041922;28;20017;-84
2022/08/15 13:28:44;;;;;;;4.50;1.90;;;;;;;;;;5060910;28;20104;-84
2022/08/15 13:31:16;;;;;;;3.55;1.52;;;;;;;;;;5062054;28;20115;-83
2022/08/15 13:33:42;;;;;;;2.78;1.73;;;;;;;;;;5062775;28;20074;-83
2022/08/15 13:36:12;;;;;;;1.92;1.63;;;;;;;;;;5065689;28;20490;-83
2022/08/15 13:38:46;;;;;;;3.58;1.90;;;;;;;;;;5065291;28;20048;-83
2022/08/15 13:41:13;;;;;;;2.03;1.70;;;;;;;;;;5064769;28;20033;-84
2022/08/15 13:43:40;;;;;;;1.67;1.58;;;;;;;;;;5065181;28;20025;-84
2022/08/15 13:46:07;;;;;;;7.88;1.95;;;;;;;;;;5052849;28;20044;-83
2022/08/15 13:48:36;;;;;;;2.10;1.90;;;;;;;;;;5059155;28;20526;-83
2022/08/15 13:51:07;;;;;;;4.38;1.70;;;;;;;;;;5061949;28;20045;-82
2022/08/15 13:53:34;;;;;;;1.63;1.52;;;;;;;;;;5058414;28;20025;-83
2022/08/15 13:56:01;;;;;;;4.38;2.00;;;;;;;;;;5065989;28;20491;-83
2022/08/15 13:58:28;;;;;;;5.03;1.83;;;;;;;;;;5061888;28;20050;-83
2022/08/15 14:00:55;;;;;;;2.75;1.80;;;;;;;;;;5045495;28;20026;-83
2022/08/15 14:03:21;;;;;;;2.33;2.03;;;;;;;;;;5045698;28;20052;-83
2022/08/15 14:05:46;;;;;;;2.25;1.73;;;;;;;;;;5044466;28;20025;-84
2022/08/15 14:08:11;;;;;;;2.10;1.77;;;;;;;;;;5046794;28;20040;-82
2022/08/15 14:10:37;;;;;;;2.70;1.98;;;;;;;;;;5047973;28;20024;-83
2022/08/15 14:13:03;;;;;;;3.88;1.80;;;;;;;;;;5049035;28;20029;-83
2022/08/15 14:15:28;;;;;;;2.65;1.75;;;;;;;;;;5056159;28;20032;-83
2022/08/15 14:17:54;;;;;;;2.13;1.92;;;;;;;;;;5054323;28;20070;-82
2022/08/15 14:20:21;;;;;;;5.32;2.08;;;;;;;;;;5065089;28;20035;-81
2022/08/15 14:22:46;;;;;;;1.98;1.77;;;;;;;;;;5070603;28;20467;-83
2022/08/15 14:25:13;;;;;;;3.20;2.00;;;;;;;;;;5075969;28;20060;-84
2022/08/15 14:27:40;;;;;;;3.50;1.67;;;;;;;;;;5076088;28;20009;-82
2022/08/15 14:30:07;;;;;;;5.15;1.90;;;;;;;;;;5068424;28;20013;-82
2022/08/15 14:32:32;;;;;;;2.80;1.92;;;;;;;;;;5067591;28;20052;-83
2022/08/15 14:34:58;;;;;;;6.53;2.13;;;;;;;;;;5067103;28;20047;-83
2022/08/15 14:37:24;;;;;;;4.18;2.10;;;;;;;;;;5065523;28;20036;-84
2022/08/15 14:39:50;;;;;;;3.97;2.20;;;;;;;;;;5063788;28;20573;-82
2022/08/15 14:42:18;;;;;;;3.63;1.98;;;;;;;;;;5050486;28;20059;-83
2022/08/15 14:44:45;;;;;;;3.78;1.95;;;;;;;;;;5050685;28;20017;-85
2022/08/15 14:47:12;;;;;;;3.42;2.03;;;;;;;;;;5045201;28;20049;-84
2022/08/15 14:49:39;;;;;;;4.97;2.10;;;;;;;;;;5061926;28;20040;-84
2022/08/15 14:52:05;;;;;;;4.63;2.28;;;;;;;;;;5063331;28;20071;-85
2022/08/15 14:54:36;;;;;;;5.15;2.22;;;;;;;;;;5062393;28;20036;-84
2022/08/15 14:57:05;;;;;;;5.03;1.95;;;;;;;;;;5057228;28;20027;-83
2022/08/15 14:59:30;;;;;;;4.18;1.73;;;;;;;;;;5057790;28;20033;-84
2022/08/15 15:01:56;;;;;;;2.90;1.50;;;;;;;;;;5047660;28;20039;-84
2022/08/15 15:04:22;;;;;;;1.50;1.40;;;;;;;;;;5047179;28;20467;-86
2022/08/15 15:06:48;;;;;;;1.92;1.35;;;;;;;;;;5063433;28;20025;-85
2022/08/15 15:09:16;;;;;;;2.72;1.50;;;;;;;;;;5048713;28;20036;-82
2022/08/15 15:11:46;;;;;;;2.15;1.20;;;;;;;;;;5046837;28;20092;-83
2022/08/15 15:14:17;;;;;;;2.92;1.45;;;;;;;;;;5046273;28;20039;-84
2022/08/15 15:16:43;;;;;;;2.22;1.40;;;;;;;;;;5047605;28;20418;-84
2022/08/15 15:19:12;;;;;;;2.95;1.20;;;;;;;;;;5046862;28;20063;-82
2022/08/15 15:21:38;;;;;;;1.08;1.00;;;;;;;;;;5044765;28;20022;-82